createdAt,value
2019-01-21T00:00:54.483Z,0.00
2019-01-21T00:01:54.421Z,0.00
2019-01-21T00:02:54.404Z,0.00
2019-01-21T00:03:54.385Z,0.00
2019-01-21T00:04:54.369Z,0.00
2019-01-21T00:05:54.352Z,0.00
2019-01-21T00:06:54.331Z,0.00
2019-01-21T00:07:54.318Z,0.00
2019-01-21T00:08:54.303Z,0.00
2019-01-21T00:09:54.283Z,0.00
2019-01-21T00:10:54.263Z,0.00
2019-01-21T00:11:54.248Z,0.00
2019-01-21T00:12:54.231Z,0.00
2019-01-21T00:13:54.210Z,0.00
2019-01-21T00:14:54.196Z,0.00
2019-01-21T00:15:54.179Z,0.00
2019-01-21T00:16:54.160Z,0.00
2019-01-21T00:17:54.141Z,0.00
2019-01-21T00:18:54.124Z,0.00
2019-01-21T00:19:54.116Z,0.00
2019-01-21T00:20:54.092Z,0.00
2019-01-21T00:21:54.072Z,0.00
2019-01-21T00:22:54.055Z,0.00
2019-01-21T00:23:54.042Z,0.00
2019-01-21T00:24:54.020Z,0.00
2019-01-21T00:25:54.002Z,0.00
2019-01-21T00:26:53.987Z,0.00
2019-01-21T00:27:53.968Z,0.00
2019-01-21T00:28:53.949Z,0.00
2019-01-21T00:29:53.946Z,0.00
2019-01-21T00:30:53.914Z,0.00
2019-01-21T00:31:53.898Z,0.00
2019-01-21T00:32:53.884Z,0.00
2019-01-21T00:33:53.862Z,0.00
2019-01-21T00:34:53.843Z,0.00
2019-01-21T00:35:53.827Z,0.00
2019-01-21T00:36:53.809Z,0.00
2019-01-21T00:37:53.794Z,0.00
2019-01-21T00:38:53.773Z,0.00
2019-01-21T00:39:53.760Z,0.00
2019-01-21T00:40:53.741Z,0.00
2019-01-21T00:41:53.720Z,0.00
2019-01-21T00:42:53.705Z,0.00
2019-01-21T00:43:53.685Z,0.00
2019-01-21T00:44:53.668Z,0.00
2019-01-21T00:45:53.652Z,0.00
2019-01-21T00:46:53.633Z,0.00
2019-01-21T00:47:53.616Z,0.00
2019-01-21T00:48:53.598Z,0.00
2019-01-21T00:49:53.581Z,0.00
2019-01-21T00:50:53.563Z,0.00
2019-01-21T00:51:53.547Z,0.00
2019-01-21T00:52:53.526Z,0.00
2019-01-21T00:53:53.517Z,0.00
2019-01-21T00:54:53.492Z,0.00
2019-01-21T00:55:53.479Z,0.00
2019-01-21T00:56:53.458Z,0.00
2019-01-21T00:57:53.439Z,0.00
2019-01-21T00:58:53.421Z,0.00
2019-01-21T00:59:53.406Z,0.00
2019-01-21T01:00:53.384Z,0.00
2019-01-21T01:01:53.370Z,0.00
2019-01-21T01:02:53.355Z,0.00
2019-01-21T01:03:53.370Z,0.00
2019-01-21T01:04:53.315Z,0.00
2019-01-21T01:05:53.301Z,0.00
2019-01-21T01:06:53.282Z,0.00
2019-01-21T01:07:53.263Z,0.00
2019-01-21T01:08:53.244Z,0.00
2019-01-21T01:09:53.228Z,0.00
2019-01-21T01:10:53.210Z,0.00
2019-01-21T01:11:53.191Z,0.00
2019-01-21T01:12:53.177Z,0.00
2019-01-21T01:13:53.157Z,0.00
2019-01-21T01:14:53.140Z,0.00
2019-01-21T01:15:53.123Z,0.00
2019-01-21T01:16:53.105Z,0.00
2019-01-21T01:17:53.086Z,0.00
2019-01-21T01:18:53.070Z,0.00
2019-01-21T01:19:53.053Z,0.00
2019-01-21T01:20:53.036Z,0.00
2019-01-21T01:21:53.019Z,0.00
2019-01-21T01:22:53.001Z,0.00
2019-01-21T01:23:52.984Z,0.00
2019-01-21T01:24:52.965Z,0.00
2019-01-21T01:25:52.950Z,0.00
2019-01-21T01:26:52.933Z,0.00
2019-01-21T01:27:52.913Z,0.00
2019-01-21T01:28:52.896Z,0.00
2019-01-21T01:29:52.878Z,0.00
2019-01-21T01:30:52.863Z,0.00
2019-01-21T01:31:52.844Z,0.00
2019-01-21T01:32:52.828Z,0.00
2019-01-21T01:33:52.818Z,0.00
2019-01-21T01:34:52.794Z,0.00
2019-01-21T01:35:52.776Z,0.00
2019-01-21T01:36:52.757Z,0.00
2019-01-21T01:37:52.742Z,0.00
2019-01-21T01:38:52.723Z,0.00
2019-01-21T01:39:52.906Z,0.00
2019-01-21T01:40:52.687Z,0.00
2019-01-21T01:41:52.668Z,0.00
2019-01-21T01:42:52.652Z,0.00
2019-01-21T01:43:52.638Z,0.00
2019-01-21T01:44:52.618Z,0.00
2019-01-21T01:45:52.607Z,0.00
2019-01-21T01:46:52.591Z,0.00
2019-01-21T01:47:52.566Z,0.00
2019-01-21T01:48:52.550Z,0.00
2019-01-21T01:49:52.533Z,0.00
2019-01-21T01:50:52.514Z,0.00
2019-01-21T01:51:52.498Z,0.00
2019-01-21T01:52:52.478Z,0.00
2019-01-21T01:53:52.462Z,0.00
2019-01-21T01:54:52.445Z,0.00
2019-01-21T01:55:52.428Z,0.00
2019-01-21T01:56:52.409Z,0.00
2019-01-21T01:57:52.394Z,0.00
2019-01-21T01:58:52.375Z,0.00
2019-01-21T01:59:52.357Z,0.00
2019-01-21T02:00:52.338Z,0.00
2019-01-21T02:01:52.323Z,0.00
2019-01-21T02:02:52.306Z,0.00
2019-01-21T02:03:52.287Z,0.00
2019-01-21T02:04:52.271Z,0.00
2019-01-21T02:05:52.255Z,0.00
2019-01-21T02:06:52.235Z,0.00
2019-01-21T02:07:52.217Z,0.00
2019-01-21T02:08:52.202Z,0.00
2019-01-21T02:09:52.185Z,0.00
2019-01-21T02:10:52.165Z,0.00
2019-01-21T02:11:52.149Z,0.00
2019-01-21T02:12:52.134Z,0.00
2019-01-21T02:13:52.113Z,0.00
2019-01-21T02:14:52.097Z,0.00
2019-01-21T02:15:52.079Z,0.00
2019-01-21T02:16:52.062Z,0.00
2019-01-21T02:17:52.406Z,0.00
2019-01-21T02:18:52.026Z,0.00
2019-01-21T02:19:52.011Z,0.00
2019-01-21T02:20:51.993Z,0.00
2019-01-21T02:21:51.975Z,0.00
2019-01-21T02:22:51.957Z,0.00
2019-01-21T02:23:51.940Z,0.00
2019-01-21T02:24:51.922Z,0.00
2019-01-21T02:25:51.906Z,0.00
2019-01-21T02:26:51.890Z,0.00
2019-01-21T02:27:51.870Z,0.00
2019-01-21T02:28:51.854Z,0.00
2019-01-21T02:29:51.837Z,0.00
2019-01-21T02:30:51.820Z,0.00
2019-01-21T02:31:51.805Z,0.00
2019-01-21T02:32:51.784Z,0.00
2019-01-21T02:33:51.769Z,0.00
2019-01-21T02:34:51.753Z,0.00
2019-01-21T02:35:51.735Z,0.00
2019-01-21T02:36:51.713Z,0.00
2019-01-21T02:37:51.697Z,0.00
2019-01-21T02:38:51.682Z,0.00
2019-01-21T02:39:51.664Z,0.00
2019-01-21T02:40:51.644Z,0.00
2019-01-21T02:41:51.630Z,0.00
2019-01-21T02:42:51.610Z,0.00
2019-01-21T02:43:51.596Z,0.00
2019-01-21T02:44:51.576Z,0.00
2019-01-21T02:45:51.564Z,0.00
2019-01-21T02:46:51.541Z,0.00
2019-01-21T02:47:51.525Z,0.00
2019-01-21T02:48:51.509Z,0.00
2019-01-21T02:49:51.491Z,0.00
2019-01-21T02:50:51.472Z,0.00
2019-01-21T02:51:51.457Z,0.00
2019-01-21T02:52:51.439Z,0.00
2019-01-21T02:53:51.422Z,0.00
2019-01-21T02:54:51.404Z,0.00
2019-01-21T02:55:51.386Z,0.00
2019-01-21T02:56:51.369Z,0.00
2019-01-21T02:57:51.351Z,0.00
2019-01-21T02:58:51.333Z,0.00
2019-01-21T02:59:51.317Z,0.00
2019-01-21T03:00:51.307Z,0.00
2019-01-21T03:01:51.282Z,0.00
2019-01-21T03:02:51.263Z,0.00
2019-01-21T03:03:51.249Z,0.00
2019-01-21T03:04:51.227Z,0.00
2019-01-21T03:05:51.211Z,0.00
2019-01-21T03:06:51.195Z,0.00
2019-01-21T03:07:51.175Z,0.00
2019-01-21T03:08:51.161Z,0.00
2019-01-21T03:09:51.140Z,0.00
2019-01-21T03:10:51.124Z,0.00
2019-01-21T03:11:51.107Z,0.00
2019-01-21T03:12:51.093Z,0.00
2019-01-21T03:13:51.083Z,0.00
2019-01-21T03:14:51.059Z,0.00
2019-01-21T03:15:51.038Z,0.00
2019-01-21T03:16:51.019Z,0.00
2019-01-21T03:17:51.002Z,0.00
2019-01-21T03:18:50.985Z,0.00
2019-01-21T03:19:50.971Z,0.00
2019-01-21T03:20:50.952Z,0.00
2019-01-21T03:21:50.933Z,0.00
2019-01-21T03:22:50.917Z,0.00
2019-01-21T03:23:50.900Z,0.00
2019-01-21T03:24:50.879Z,0.00
2019-01-21T03:25:50.865Z,0.00
2019-01-21T03:26:50.853Z,0.00
2019-01-21T03:27:50.830Z,0.00
2019-01-21T03:28:50.811Z,0.00
2019-01-21T03:29:50.796Z,0.00
2019-01-21T03:30:50.795Z,0.00
2019-01-21T03:31:50.762Z,0.00
2019-01-21T03:32:50.744Z,0.00
2019-01-21T03:33:50.724Z,0.00
2019-01-21T03:34:50.707Z,0.00
2019-01-21T03:35:50.690Z,0.00
2019-01-21T03:36:50.674Z,0.00
2019-01-21T03:37:50.654Z,0.00
2019-01-21T03:38:50.634Z,0.00
2019-01-21T03:39:50.618Z,0.00
2019-01-21T03:40:50.602Z,0.00
2019-01-21T03:41:50.583Z,0.00
2019-01-21T03:42:50.571Z,0.00
2019-01-21T03:43:50.550Z,0.00
2019-01-21T03:44:50.529Z,0.00
2019-01-21T03:45:50.514Z,0.00
2019-01-21T03:46:50.497Z,0.00
2019-01-21T03:47:50.480Z,0.00
2019-01-21T03:48:50.461Z,0.00
2019-01-21T03:49:50.442Z,0.00
2019-01-21T03:50:50.428Z,0.00
2019-01-21T03:51:50.412Z,0.00
2019-01-21T03:52:50.390Z,0.00
2019-01-21T03:53:50.374Z,0.00
2019-01-21T03:54:50.357Z,0.00
2019-01-21T03:55:50.338Z,0.00
2019-01-21T03:56:50.322Z,0.00
2019-01-21T03:57:50.308Z,0.00
2019-01-21T03:58:50.288Z,0.00
2019-01-21T03:59:50.269Z,0.00
2019-01-21T04:00:50.258Z,0.00
2019-01-21T04:01:50.235Z,0.00
2019-01-21T04:02:50.218Z,0.00
2019-01-21T04:03:50.200Z,0.00
2019-01-21T04:04:50.180Z,0.00
2019-01-21T04:05:50.162Z,0.00
2019-01-21T04:06:50.149Z,0.00
2019-01-21T04:07:50.131Z,0.00
2019-01-21T04:08:50.113Z,0.00
2019-01-21T04:09:50.094Z,0.00
2019-01-21T04:10:50.078Z,0.00
2019-01-21T04:11:50.060Z,0.00
2019-01-21T04:12:50.043Z,0.00
2019-01-21T04:13:50.025Z,0.00
2019-01-21T04:14:50.008Z,0.00
2019-01-21T04:15:49.989Z,0.00
2019-01-21T04:16:49.969Z,0.00
2019-01-21T04:17:49.952Z,0.00
2019-01-21T04:18:49.935Z,0.00
2019-01-21T04:19:49.917Z,0.00
2019-01-21T04:20:49.898Z,0.00
2019-01-21T04:21:49.881Z,0.00
2019-01-21T04:22:49.865Z,0.00
2019-01-21T04:23:49.844Z,0.00
2019-01-21T04:24:49.830Z,0.00
2019-01-21T04:25:49.815Z,0.00
2019-01-21T04:26:49.792Z,0.00
2019-01-21T04:27:49.796Z,0.00
2019-01-21T04:28:49.755Z,0.00
2019-01-21T04:29:49.740Z,0.00
2019-01-21T04:30:49.719Z,0.00
2019-01-21T04:31:49.703Z,0.00
2019-01-21T04:32:49.684Z,0.00
2019-01-21T04:33:49.668Z,0.00
2019-01-21T04:34:49.652Z,0.00
2019-01-21T04:35:49.634Z,0.00
2019-01-21T04:36:49.613Z,0.00
2019-01-21T04:37:49.595Z,0.00
2019-01-21T04:38:49.576Z,0.00
2019-01-21T04:39:49.564Z,0.00
2019-01-21T04:40:49.542Z,0.00
2019-01-21T04:41:49.526Z,0.00
2019-01-21T04:42:49.506Z,0.00
2019-01-21T04:43:49.498Z,0.00
2019-01-21T04:44:49.472Z,0.00
2019-01-21T04:45:49.455Z,0.00
2019-01-21T04:46:49.437Z,0.00
2019-01-21T04:47:49.420Z,0.00
2019-01-21T04:48:49.400Z,0.00
2019-01-21T04:49:49.383Z,0.00
2019-01-21T04:50:49.363Z,0.00
2019-01-21T04:51:49.347Z,0.00
2019-01-21T04:52:49.760Z,0.00
2019-01-21T04:53:49.311Z,0.00
2019-01-21T04:54:49.299Z,0.00
2019-01-21T04:55:49.274Z,0.00
2019-01-21T04:56:49.258Z,0.00
2019-01-21T04:57:49.237Z,0.00
2019-01-21T04:58:49.219Z,0.00
2019-01-21T04:59:49.204Z,0.00
2019-01-21T05:00:49.184Z,0.00
2019-01-21T05:01:49.177Z,0.00
2019-01-21T05:02:49.149Z,0.00
2019-01-21T05:03:50.072Z,0.00
2019-01-21T05:04:49.111Z,0.00
2019-01-21T05:05:49.094Z,0.00
2019-01-21T05:06:49.073Z,0.00
2019-01-21T05:07:49.059Z,0.00
2019-01-21T05:08:49.036Z,0.00
2019-01-21T05:09:49.020Z,0.00
2019-01-21T05:10:49.005Z,0.00
2019-01-21T05:11:48.985Z,0.00
2019-01-21T05:12:48.965Z,0.00
2019-01-21T05:13:48.945Z,0.00
2019-01-21T05:14:48.928Z,0.00
2019-01-21T05:15:48.911Z,0.00
2019-01-21T05:16:48.894Z,0.00
2019-01-21T05:17:48.873Z,0.00
2019-01-21T05:18:48.856Z,0.00
2019-01-21T05:19:48.841Z,0.00
2019-01-21T05:20:48.819Z,0.00
2019-01-21T05:21:48.801Z,0.00
2019-01-21T05:22:48.782Z,0.00
2019-01-21T05:23:48.765Z,0.00
2019-01-21T05:24:48.749Z,0.00
2019-01-21T05:25:48.731Z,0.00
2019-01-21T05:26:48.712Z,0.00
2019-01-21T05:27:48.694Z,0.00
2019-01-21T05:28:48.677Z,0.00
2019-01-21T05:29:48.656Z,0.00
2019-01-21T05:30:48.643Z,0.00
2019-01-21T05:31:48.625Z,0.00
2019-01-21T05:32:48.602Z,0.00
2019-01-21T05:33:48.583Z,0.00
2019-01-21T05:34:48.565Z,0.00
2019-01-21T05:35:48.548Z,0.00
2019-01-21T05:36:48.530Z,0.00
2019-01-21T05:37:48.516Z,0.00
2019-01-21T05:38:48.503Z,0.00
2019-01-21T05:39:48.478Z,0.00
2019-01-21T05:40:48.462Z,0.00
2019-01-21T05:41:48.441Z,0.00
2019-01-21T05:42:48.421Z,0.00
2019-01-21T05:43:48.407Z,0.00
2019-01-21T05:44:48.394Z,0.00
2019-01-21T05:45:48.368Z,0.00
2019-01-21T05:46:48.351Z,0.00
2019-01-21T05:47:48.331Z,0.00
2019-01-21T05:48:49.031Z,0.00
2019-01-21T05:49:48.300Z,0.00
2019-01-21T05:50:48.282Z,0.00
2019-01-21T05:51:48.263Z,0.00
2019-01-21T05:52:48.243Z,0.00
2019-01-21T05:53:48.225Z,0.00
2019-01-21T05:54:48.209Z,0.00
2019-01-21T05:55:48.192Z,0.00
2019-01-21T05:56:48.173Z,0.00
2019-01-21T05:57:48.157Z,0.00
2019-01-21T05:58:48.138Z,0.00
2019-01-21T05:59:48.119Z,0.00
2019-01-21T06:00:48.101Z,0.00
2019-01-21T06:01:48.085Z,0.00
2019-01-21T06:02:48.065Z,0.00
2019-01-21T06:03:48.047Z,0.00
2019-01-21T06:04:48.037Z,0.00
2019-01-21T06:05:48.014Z,0.00
2019-01-21T06:06:47.998Z,0.00
2019-01-21T06:07:47.983Z,0.00
2019-01-21T06:08:47.958Z,0.00
2019-01-21T06:09:47.939Z,0.00
2019-01-21T06:10:47.928Z,0.00
2019-01-21T06:11:47.909Z,0.00
2019-01-21T06:12:47.888Z,0.00
2019-01-21T06:13:47.870Z,0.00
2019-01-21T06:14:47.854Z,0.00
2019-01-21T06:15:47.841Z,0.00
2019-01-21T06:16:47.817Z,0.00
2019-01-21T06:17:47.797Z,0.00
2019-01-21T06:18:47.783Z,0.00
2019-01-21T06:19:47.769Z,0.00
2019-01-21T06:20:47.745Z,0.00
2019-01-21T06:21:47.733Z,0.00
2019-01-21T06:22:47.710Z,0.00
2019-01-21T06:23:47.693Z,0.00
2019-01-21T06:24:47.673Z,0.00
2019-01-21T06:25:47.658Z,0.00
2019-01-21T06:26:47.638Z,0.00
2019-01-21T06:27:47.621Z,0.00
2019-01-21T06:28:47.603Z,0.00
2019-01-21T06:29:47.585Z,0.00
2019-01-21T06:30:47.568Z,0.00
2019-01-21T06:31:47.549Z,0.00
2019-01-21T06:32:47.533Z,0.00
2019-01-21T06:33:47.543Z,0.00
2019-01-21T06:34:47.499Z,0.00
2019-01-21T06:35:47.481Z,0.00
2019-01-21T06:36:47.470Z,0.00
2019-01-21T06:37:47.445Z,0.00
2019-01-21T06:38:47.428Z,0.00
2019-01-21T06:39:47.410Z,0.00
2019-01-21T06:40:47.395Z,0.00
2019-01-21T06:41:47.375Z,0.00
2019-01-21T06:42:47.356Z,0.00
2019-01-21T06:43:47.339Z,0.00
2019-01-21T06:44:47.324Z,4.00
2019-01-21T06:45:47.306Z,4.00
2019-01-21T06:46:47.284Z,0.00
2019-01-21T06:47:47.269Z,4.00
2019-01-21T06:48:47.247Z,4.00
2019-01-21T06:49:47.231Z,0.00
2019-01-21T06:50:47.213Z,4.00
2019-01-21T06:51:47.197Z,4.00
2019-01-21T06:52:47.179Z,4.00
2019-01-21T06:53:47.158Z,8.00
2019-01-21T06:54:47.142Z,4.00
2019-01-21T06:55:47.126Z,8.00
2019-01-21T06:56:47.552Z,8.00
2019-01-21T06:57:47.088Z,8.00
2019-01-21T06:58:47.072Z,8.00
2019-01-21T06:59:47.052Z,12.00
2019-01-21T07:00:47.034Z,12.00
2019-01-21T07:01:47.017Z,12.00
2019-01-21T07:02:47.001Z,16.00
2019-01-21T07:03:46.984Z,20.00
2019-01-21T07:04:46.966Z,20.00
2019-01-21T07:05:46.945Z,20.00
2019-01-21T07:06:46.930Z,20.00
2019-01-21T07:07:46.914Z,28.00
2019-01-21T07:08:46.892Z,28.00
2019-01-21T07:09:46.877Z,32.00
2019-01-21T07:10:46.860Z,36.00
2019-01-21T07:11:46.841Z,36.00
2019-01-21T07:12:46.823Z,40.00
2019-01-21T07:13:46.808Z,44.00
2019-01-21T07:14:46.792Z,44.00
2019-01-21T07:15:46.772Z,52.00
2019-01-21T07:16:46.754Z,56.00
2019-01-21T07:17:46.736Z,56.00
2019-01-21T07:18:46.718Z,64.00
2019-01-21T07:19:46.704Z,64.00
2019-01-21T07:20:46.683Z,72.00
2019-01-21T07:21:46.665Z,80.00
2019-01-21T07:22:46.647Z,84.00
2019-01-21T07:23:46.630Z,96.00
2019-01-21T07:24:46.615Z,104.00
2019-01-21T07:25:46.596Z,116.00
2019-01-21T07:26:46.577Z,124.00
2019-01-21T07:27:46.560Z,136.00
2019-01-21T07:28:46.541Z,144.00
2019-01-21T07:29:46.524Z,152.00
2019-01-21T07:30:46.509Z,164.00
2019-01-21T07:31:46.491Z,172.00
2019-01-21T07:32:46.473Z,176.00
2019-01-21T07:33:46.455Z,184.00
2019-01-21T07:34:46.436Z,192.00
2019-01-21T07:35:46.423Z,192.00
2019-01-21T07:36:46.404Z,196.00
2019-01-21T07:37:46.387Z,192.00
2019-01-21T07:38:46.366Z,196.00
2019-01-21T07:39:46.351Z,192.00
2019-01-21T07:40:46.330Z,196.00
2019-01-21T07:41:46.313Z,200.00
2019-01-21T07:42:46.297Z,200.00
2019-01-21T07:43:46.281Z,204.00
2019-01-21T07:44:46.263Z,204.00
2019-01-21T07:45:46.242Z,208.00
2019-01-21T07:46:46.227Z,208.00
2019-01-21T07:47:46.210Z,212.00
2019-01-21T07:48:46.191Z,216.00
2019-01-21T07:49:46.172Z,220.00
2019-01-21T07:50:46.157Z,224.00
2019-01-21T07:51:46.138Z,228.00
2019-01-21T07:52:46.117Z,232.00
2019-01-21T07:53:46.101Z,232.00
2019-01-21T07:54:46.084Z,236.00
2019-01-21T07:55:46.072Z,240.00
2019-01-21T07:56:46.049Z,248.00
2019-01-21T07:57:46.030Z,248.00
2019-01-21T07:58:46.012Z,256.00
2019-01-21T07:59:45.996Z,260.00
2019-01-21T08:00:45.977Z,268.00
2019-01-21T08:01:45.959Z,272.00
2019-01-21T08:02:45.942Z,276.00
2019-01-21T08:03:45.923Z,288.00
2019-01-21T08:04:45.905Z,296.00
2019-01-21T08:05:45.888Z,304.00
2019-01-21T08:06:45.886Z,312.00
2019-01-21T08:07:45.856Z,312.00
2019-01-21T08:08:45.836Z,316.00
2019-01-21T08:09:45.817Z,316.00
2019-01-21T08:10:45.802Z,320.00
2019-01-21T08:11:45.788Z,324.00
2019-01-21T08:12:45.765Z,328.00
2019-01-21T08:13:45.746Z,336.00
2019-01-21T08:14:45.728Z,340.00
2019-01-21T08:15:45.712Z,348.00
2019-01-21T08:16:45.691Z,356.00
2019-01-21T08:17:45.677Z,364.00
2019-01-21T08:18:45.655Z,372.00
2019-01-21T08:19:45.640Z,380.00
2019-01-21T08:20:45.620Z,384.00
2019-01-21T08:21:45.606Z,388.00
2019-01-21T08:22:45.586Z,400.00
2019-01-21T08:23:45.567Z,404.00
2019-01-21T08:24:45.550Z,412.00
2019-01-21T08:25:45.532Z,412.00
2019-01-21T08:26:45.514Z,420.00
2019-01-21T08:27:45.497Z,424.00
2019-01-21T08:28:45.482Z,432.00
2019-01-21T08:29:45.461Z,436.00
2019-01-21T08:30:45.442Z,444.00
2019-01-21T08:31:45.426Z,452.00
2019-01-21T08:32:45.408Z,456.00
2019-01-21T08:33:45.390Z,464.00
2019-01-21T08:34:45.374Z,476.00
2019-01-21T08:35:45.355Z,480.00
2019-01-21T08:36:45.338Z,496.00
2019-01-21T08:37:45.318Z,500.00
2019-01-21T08:38:45.302Z,508.00
2019-01-21T08:39:45.284Z,516.00
2019-01-21T08:40:45.265Z,528.00
2019-01-21T08:41:45.248Z,532.00
2019-01-21T08:42:45.228Z,540.00
2019-01-21T08:43:45.210Z,548.00
2019-01-21T08:44:45.192Z,552.00
2019-01-21T08:45:45.175Z,560.00
2019-01-21T08:46:45.156Z,564.00
2019-01-21T08:47:45.137Z,572.00
2019-01-21T08:48:45.119Z,580.00
2019-01-21T08:49:45.099Z,588.00
2019-01-21T08:50:45.082Z,596.00
2019-01-21T08:51:45.064Z,604.00
2019-01-21T08:52:45.046Z,604.00
2019-01-21T08:53:45.028Z,608.00
2019-01-21T08:54:45.011Z,608.00
2019-01-21T08:55:44.992Z,608.00
2019-01-21T08:56:44.973Z,608.00
2019-01-21T08:57:44.954Z,608.00
2019-01-21T08:58:44.940Z,612.00
2019-01-21T08:59:44.921Z,608.00
2019-01-21T09:00:44.902Z,616.00
2019-01-21T09:01:44.884Z,616.00
2019-01-21T09:02:44.864Z,620.00
2019-01-21T09:03:44.847Z,620.00
2019-01-21T09:04:44.827Z,628.00
2019-01-21T09:05:44.809Z,624.00
2019-01-21T09:06:44.793Z,620.00
2019-01-21T09:07:44.775Z,608.00
2019-01-21T09:08:44.756Z,596.00
2019-01-21T09:09:44.738Z,584.00
2019-01-21T09:10:44.719Z,564.00
2019-01-21T09:11:44.704Z,556.00
2019-01-21T09:12:44.684Z,540.00
2019-01-21T09:13:44.665Z,532.00
2019-01-21T09:14:44.649Z,532.00
2019-01-21T09:15:44.630Z,536.00
2019-01-21T09:16:44.611Z,532.00
2019-01-21T09:17:44.595Z,528.00
2019-01-21T09:18:44.576Z,536.00
2019-01-21T09:19:44.558Z,540.00
2019-01-21T09:20:44.540Z,544.00
2019-01-21T09:21:44.526Z,556.00
2019-01-21T09:22:44.506Z,556.00
2019-01-21T09:23:44.488Z,560.00
2019-01-21T09:24:44.471Z,564.00
2019-01-21T09:25:44.461Z,576.00
2019-01-21T09:26:44.437Z,580.00
2019-01-21T09:27:44.419Z,588.00
2019-01-21T09:28:44.400Z,600.00
2019-01-21T09:29:44.382Z,612.00
2019-01-21T09:30:44.368Z,628.00
2019-01-21T09:31:44.350Z,636.00
2019-01-21T09:32:44.334Z,644.00
2019-01-21T09:33:44.312Z,640.00
2019-01-21T09:34:44.297Z,636.00
2019-01-21T09:35:44.278Z,624.00
2019-01-21T09:36:44.265Z,628.00
2019-01-21T09:37:44.244Z,628.00
2019-01-21T09:38:44.227Z,632.00
2019-01-21T09:39:44.212Z,628.00
2019-01-21T09:40:44.192Z,624.00
2019-01-21T09:41:44.173Z,616.00
2019-01-21T09:42:44.156Z,612.00
2019-01-21T09:43:44.137Z,612.00
2019-01-21T09:44:44.122Z,616.00
2019-01-21T09:45:44.102Z,612.00
2019-01-21T09:46:44.091Z,620.00
2019-01-21T09:47:44.076Z,628.00
2019-01-21T09:48:44.051Z,632.00
2019-01-21T09:49:44.031Z,640.00
2019-01-21T09:50:44.017Z,648.00
2019-01-21T09:51:43.997Z,656.00
2019-01-21T09:52:43.979Z,668.00
2019-01-21T09:53:43.964Z,676.00
2019-01-21T09:54:43.946Z,688.00
2019-01-21T09:55:44.924Z,696.00
2019-01-21T09:56:43.909Z,708.00
2019-01-21T09:57:43.895Z,724.00
2019-01-21T09:58:43.875Z,744.00
2019-01-21T09:59:43.859Z,752.00
2019-01-21T10:00:43.842Z,760.00
2019-01-21T10:01:43.823Z,772.00
2019-01-21T10:02:43.808Z,788.00
2019-01-21T10:03:43.791Z,804.00
2019-01-21T10:04:43.774Z,812.00
2019-01-21T10:05:43.756Z,820.00
2019-01-21T10:06:43.738Z,824.00
2019-01-21T10:07:43.720Z,832.00
2019-01-21T10:08:43.702Z,840.00
2019-01-21T10:09:43.687Z,848.00
2019-01-21T10:10:43.669Z,852.00
2019-01-21T10:11:43.653Z,860.00
2019-01-21T10:12:43.633Z,876.00
2019-01-21T10:13:43.616Z,896.00
2019-01-21T10:14:43.599Z,908.00
2019-01-21T10:15:43.583Z,920.00
2019-01-21T10:16:43.567Z,932.00
2019-01-21T10:17:43.549Z,940.00
2019-01-21T10:18:43.533Z,940.00
2019-01-21T10:19:43.514Z,944.00
2019-01-21T10:20:43.499Z,944.00
2019-01-21T10:21:43.479Z,936.00
2019-01-21T10:22:43.464Z,928.00
2019-01-21T10:23:43.448Z,916.00
2019-01-21T10:24:43.430Z,912.00
2019-01-21T10:25:43.412Z,920.00
2019-01-21T10:26:43.396Z,920.00
2019-01-21T10:27:43.378Z,924.00
2019-01-21T10:28:43.361Z,924.00
2019-01-21T10:29:43.344Z,940.00
2019-01-21T10:30:43.327Z,944.00
2019-01-21T10:31:43.310Z,956.00
2019-01-21T10:32:43.294Z,964.00
2019-01-21T10:33:43.278Z,972.00
2019-01-21T10:34:43.259Z,984.00
2019-01-21T10:35:43.242Z,1008.00
2019-01-21T10:36:43.225Z,1024.00
2019-01-21T10:37:43.210Z,1040.00
2019-01-21T10:38:43.198Z,1056.00
2019-01-21T10:39:43.178Z,1072.00
2019-01-21T10:40:43.162Z,1088.00
2019-01-21T10:41:43.142Z,1108.00
2019-01-21T10:42:43.126Z,1124.00
2019-01-21T10:43:43.112Z,1140.00
2019-01-21T10:44:43.092Z,1148.00
2019-01-21T10:45:43.078Z,1160.00
2019-01-21T10:46:43.061Z,1168.00
2019-01-21T10:47:43.044Z,1176.00
2019-01-21T10:48:43.028Z,1176.00
2019-01-21T10:49:43.011Z,1180.00
2019-01-21T10:50:42.994Z,1180.00
2019-01-21T10:51:42.976Z,1172.00
2019-01-21T10:52:42.961Z,1176.00
2019-01-21T10:53:42.943Z,1176.00
2019-01-21T10:54:42.927Z,1172.00
2019-01-21T10:55:42.912Z,1168.00
2019-01-21T10:56:42.893Z,1172.00
2019-01-21T10:57:42.877Z,1168.00
2019-01-21T10:58:42.860Z,1168.00
2019-01-21T10:59:42.848Z,1160.00
2019-01-21T11:00:42.831Z,1160.00
2019-01-21T11:01:42.810Z,1168.00
2019-01-21T11:02:42.797Z,1180.00
2019-01-21T11:03:42.779Z,1188.00
2019-01-21T11:04:42.764Z,1204.00
2019-01-21T11:05:42.745Z,1212.00
2019-01-21T11:06:42.729Z,1220.00
2019-01-21T11:07:42.713Z,1220.00
2019-01-21T11:08:42.694Z,1220.00
2019-01-21T11:09:42.679Z,1216.00
2019-01-21T11:10:42.667Z,1204.00
2019-01-21T11:11:42.649Z,1196.00
2019-01-21T11:12:42.630Z,1196.00
2019-01-21T11:13:42.615Z,1200.00
2019-01-21T11:14:42.601Z,1208.00
2019-01-21T11:15:42.582Z,1220.00
2019-01-21T11:16:42.565Z,1224.00
2019-01-21T11:17:42.549Z,1232.00
2019-01-21T11:18:42.535Z,1232.00
2019-01-21T11:19:42.519Z,1244.00
2019-01-21T11:20:42.503Z,1260.00
2019-01-21T11:21:42.487Z,1276.00
2019-01-21T11:22:42.470Z,1288.00
2019-01-21T11:23:42.454Z,1292.00
2019-01-21T11:24:42.435Z,1300.00
2019-01-21T11:25:42.419Z,1312.00
2019-01-21T11:26:42.403Z,1316.00
2019-01-21T11:27:42.387Z,1316.00
2019-01-21T11:28:42.560Z,1324.00
2019-01-21T11:29:42.354Z,1324.00
2019-01-21T11:30:42.337Z,1324.00
2019-01-21T11:31:42.322Z,1328.00
2019-01-21T11:32:42.305Z,1336.00
2019-01-21T11:33:42.289Z,1340.00
2019-01-21T11:34:42.274Z,1348.00
2019-01-21T11:35:42.258Z,1352.00
2019-01-21T11:36:42.241Z,1364.00
2019-01-21T11:37:42.225Z,1376.00
2019-01-21T11:38:42.211Z,1380.00
2019-01-21T11:39:42.193Z,1384.00
2019-01-21T11:40:42.176Z,1396.00
2019-01-21T11:41:42.161Z,1404.00
2019-01-21T11:42:42.147Z,1416.00
2019-01-21T11:43:42.131Z,1420.00
2019-01-21T11:44:42.112Z,1420.00
2019-01-21T11:45:42.098Z,1420.00
2019-01-21T11:46:42.081Z,1420.00
2019-01-21T11:47:42.064Z,1412.00
2019-01-21T11:48:43.185Z,1416.00
2019-01-21T11:49:42.032Z,1416.00
2019-01-21T11:50:42.015Z,1416.00
2019-01-21T11:51:42.000Z,1416.00
2019-01-21T11:52:41.984Z,1424.00
2019-01-21T11:53:41.968Z,1424.00
2019-01-21T11:54:41.956Z,1428.00
2019-01-21T11:55:41.937Z,1428.00
2019-01-21T11:56:41.918Z,1424.00
2019-01-21T11:57:41.904Z,1420.00
2019-01-21T11:58:41.888Z,1416.00
2019-01-21T11:59:43.123Z,1404.00
2019-01-21T12:00:41.857Z,1392.00
2019-01-21T12:01:41.836Z,1388.00
2019-01-21T12:02:41.820Z,1376.00
2019-01-21T12:03:41.804Z,1372.00
2019-01-21T12:04:41.787Z,1372.00
2019-01-21T12:05:41.770Z,1372.00
2019-01-21T12:06:41.753Z,1376.00
2019-01-21T12:07:41.736Z,1376.00
2019-01-21T12:08:41.720Z,1380.00
2019-01-21T12:09:41.703Z,1388.00
2019-01-21T12:10:41.686Z,1388.00
2019-01-21T12:11:41.666Z,1396.00
2019-01-21T12:12:41.647Z,1400.00
2019-01-21T12:13:41.632Z,1396.00
2019-01-21T12:14:41.617Z,1396.00
2019-01-21T12:15:41.598Z,1396.00
2019-01-21T12:16:41.581Z,1392.00
2019-01-21T12:17:41.566Z,1396.00
2019-01-21T12:18:41.546Z,1400.00
2019-01-21T12:19:41.529Z,1396.00
2019-01-21T12:20:41.512Z,1392.00
2019-01-21T12:21:41.494Z,1380.00
2019-01-21T12:22:41.479Z,1368.00
2019-01-21T12:23:41.461Z,1364.00
2019-01-21T12:24:41.442Z,1360.00
2019-01-21T12:25:41.425Z,1348.00
2019-01-21T12:26:41.408Z,1340.00
2019-01-21T12:27:41.392Z,1328.00
2019-01-21T12:28:41.372Z,1308.00
2019-01-21T12:29:41.355Z,1292.00
2019-01-21T12:30:41.345Z,1280.00
2019-01-21T12:31:41.322Z,1264.00
2019-01-21T12:32:41.304Z,1256.00
2019-01-21T12:33:41.289Z,1244.00
2019-01-21T12:34:41.272Z,1240.00
2019-01-21T12:35:41.255Z,1228.00
2019-01-21T12:36:41.237Z,1216.00
2019-01-21T12:37:41.218Z,1200.00
2019-01-21T12:38:41.216Z,1180.00
2019-01-21T12:39:41.187Z,1160.00
2019-01-21T12:40:41.172Z,1140.00
2019-01-21T12:41:41.152Z,1136.00
2019-01-21T12:42:41.135Z,1136.00
2019-01-21T12:43:41.119Z,1136.00
2019-01-21T12:44:41.104Z,1140.00
2019-01-21T12:45:41.089Z,1140.00
2019-01-21T12:46:41.072Z,1140.00
2019-01-21T12:47:41.055Z,1140.00
2019-01-21T12:48:41.037Z,1136.00
2019-01-21T12:49:41.019Z,1136.00
2019-01-21T12:50:41.001Z,1136.00
2019-01-21T12:51:40.997Z,1140.00